Pallada — UDUI — position and weather

sailwx.info

Track history (hours):
 
Tides and Currents Weather Stations Pressure Air Temp Water Temp Dewpoint Dewpoint Depression Visibility Wind Speed Wind Dir Waves Ship Positions

Pallada

Last reported at 2016-Jul-14 12:04 UTC. Time now 2016-Jul-24 12:55 UTC.
Position N 38°40' E 121°60'.
Warning: this ship's position is 10 days out of date.

Length 109 m; draft 7 m.

Type: Sailing vessel. MMSI: 273815200.

Date/timePositionNaut miles runAvg speedWind from/ knotsBaromVisibWave heightAir tempDewpointWater temp
2016-Jul-14 12:04N 38°40' E 121°60'4 8.2
2016-Jul-14 11:33N 38°43' E 121°56'8 8.0
2016-Jul-14 10:33N 38°49' E 121°48'  
2016-Jul-11 02:24N 38°55' E 121°44'7 7.9
2016-Jul-11 01:33N 38°50' E 121°49'8 8.4
2016-Jul-11 00:33N 38°45' E 121°58'8 8.1
2016-Jul-10 23:31N 38°40' E 122°06'16 7.3
2016-Jul-10 21:16N 38°32' E 122°25'0 0.2
2016-Jul-10 20:32N 38°32' E 122°25'0 0.1
2016-Jul-10 19:29N 38°32' E 122°25'0 0.0
2016-Jul-10 16:25N 38°32' E 122°25'0 0.0
2016-Jul-10 15:31N 38°32' E 122°25'0 0.0
2016-Jul-10 14:31N 38°32' E 122°25'0 0.0
2016-Jul-10 13:20N 38°32' E 122°25'0 0.0
2016-Jul-10 11:31N 38°32' E 122°25'4 3.8
2016-Jul-10 10:29N 38°29' E 122°28'60 7.1
2016-Jul-10 02:05N 37°39' E 123°11'5 9.3
2016-Jul-10 01:30N 37°35' E 123°15'11 9.3
2016-Jul-10 00:21N 37°26' E 123°23'37 7.7
2016-Jul-09 19:33N 36°52' E 123°42'17 7.1
2016-Jul-09 17:06N 36°36' E 123°51'4 7.1
2016-Jul-09 16:32N 36°33' E 123°53'7 7.4
2016-Jul-09 15:32N 36°26' E 123°56'17 7.6
2016-Jul-09 13:20N 36°10' E 124°04'9 7.8
2016-Jul-09 12:09N 36°02' E 124°08'  
Track history (hours):
 
Tides and Currents Weather Stations Pressure Air Temp Water Temp Dewpoint Dewpoint Depression Visibility Wind Speed Wind Dir Waves Ship Positions

Pallada

Last reported at 2016-Jul-14 12:04 UTC. Time now 2016-Jul-24 12:55 UTC.
Position N 38°40' E 121°60'.
Warning: this ship's position is 10 days out of date.

Length 109 m; draft 7 m.

Type: Sailing vessel. MMSI: 273815200.

Date/timePositionNaut miles runAvg speedWind from/ knotsBaromVisibWave heightAir tempDewpointWater temp
2016-Jul-14 12:04N 38°40' E 121°60'4 8.2
2016-Jul-14 11:33N 38°43' E 121°56'8 8.0
2016-Jul-14 10:33N 38°49' E 121°48'  
2016-Jul-11 02:24N 38°55' E 121°44'7 7.9
2016-Jul-11 01:33N 38°50' E 121°49'8 8.4
2016-Jul-11 00:33N 38°45' E 121°58'8 8.1
2016-Jul-10 23:31N 38°40' E 122°06'16 7.3
2016-Jul-10 21:16N 38°32' E 122°25'0 0.2
2016-Jul-10 20:32N 38°32' E 122°25'0 0.1
2016-Jul-10 19:29N 38°32' E 122°25'0 0.0
2016-Jul-10 16:25N 38°32' E 122°25'0 0.0
2016-Jul-10 15:31N 38°32' E 122°25'0 0.0
2016-Jul-10 14:31N 38°32' E 122°25'0 0.0
2016-Jul-10 13:20N 38°32' E 122°25'0 0.0
2016-Jul-10 11:31N 38°32' E 122°25'4 3.8
2016-Jul-10 10:29N 38°29' E 122°28'60 7.1
2016-Jul-10 02:05N 37°39' E 123°11'5 9.3
2016-Jul-10 01:30N 37°35' E 123°15'11 9.3
2016-Jul-10 00:21N 37°26' E 123°23'37 7.7
2016-Jul-09 19:33N 36°52' E 123°42'17 7.1
2016-Jul-09 17:06N 36°36' E 123°51'4 7.1
2016-Jul-09 16:32N 36°33' E 123°53'7 7.4
2016-Jul-09 15:32N 36°26' E 123°56'17 7.6
2016-Jul-09 13:20N 36°10' E 124°04'9 7.8
2016-Jul-09 12:09N 36°02' E 124°08'  

Dump ship's entire track history